Time;durP1;ratioP1;P1;durP2;ratioP2;P2;SDS_P1;SDS_P2;PMS_P1;PMS_P2;Temp;Humidity;BMP_temperature;BMP_pressure;BME280_temperature;BME280_humidity;BME280_pressure;Samples;Min_cycle;Max_cycle;Signal;HPM_P1;HPM_P2
2021/03/19 00:01:03;;;;;;;40.35;17.83;;;5.00;98.10;;;;;;4802403;29;20035;-81
2021/03/19 00:03:29;;;;;;;36.15;18.00;;;5.00;98.10;;;;;;4803000;29;20062;-80
2021/03/19 00:05:54;;;;;;;40.38;17.65;;;4.90;98.10;;;;;;4788936;29;20067;-80
2021/03/19 00:08:20;;;;;;;41.35;17.55;;;5.00;98.20;;;;;;4803258;29;20336;-80
2021/03/19 00:10:46;;;;;;;40.10;17.77;;;5.00;98.50;;;;;;4803709;29;20043;-81
2021/03/19 00:13:11;;;;;;;40.05;17.08;;;5.00;98.10;;;;;;4802776;29;20038;-83
2021/03/19 00:15:38;;;;;;;35.25;16.17;;;5.00;98.20;;;;;;4786608;29;20062;-80
2021/03/19 00:18:05;;;;;;;38.55;17.30;;;5.00;98.10;;;;;;4802688;29;20470;-80
2021/03/19 00:20:36;;;;;;;39.95;16.48;;;4.90;98.30;;;;;;4802160;29;20050;-81
2021/03/19 00:23:03;;;;;;;35.58;15.93;;;4.80;98.20;;;;;;4786125;29;20046;-81
2021/03/19 00:25:29;;;;;;;43.15;17.33;;;4.80;98.20;;;;;;4801302;29;20070;-82
2021/03/19 00:27:55;;;;;;;37.85;16.92;;;4.70;98.20;;;;;;4801450;29;20462;-81
2021/03/19 00:30:22;;;;;;;40.35;18.38;;;4.60;98.20;;;;;;4786306;29;20031;-80
2021/03/19 00:32:48;;;;;;;40.30;16.55;;;4.60;98.30;;;;;;4804113;29;20035;-80
2021/03/19 00:35:15;;;;;;;41.08;17.42;;;4.60;98.40;;;;;;4802384;29;20522;-80
2021/03/19 00:37:41;;;;;;;43.72;17.65;;;4.70;98.30;;;;;;4804789;29;20415;-81
2021/03/19 00:40:10;;;;;;;32.53;16.73;;;4.50;98.30;;;;;;4805500;29;20122;-81
2021/03/19 00:42:36;;;;;;;35.85;16.00;;;4.40;98.30;;;;;;4805486;29;20662;-82
2021/03/19 00:45:03;;;;;;;37.95;16.63;;;4.40;98.60;;;;;;4807122;29;20039;-81
2021/03/19 00:47:31;;;;;;;35.72;17.27;;;4.30;98.40;;;;;;4805688;29;20126;-81
2021/03/19 00:49:57;;;;;;;34.53;15.63;;;4.20;98.40;;;;;;4789468;29;20043;-79
2021/03/19 00:52:23;;;;;;;37.15;15.35;;;4.10;98.40;;;;;;4804309;29;20427;-81
2021/03/19 00:54:48;;;;;;;32.28;15.55;;;4.00;98.40;;;;;;4805047;29;20058;-82
2021/03/19 00:57:14;;;;;;;30.55;14.07;;;4.00;98.40;;;;;;4805468;29;20031;-80
2021/03/19 00:59:39;;;;;;;28.98;13.50;;;3.80;98.30;;;;;;4807038;29;20034;-82
2021/03/19 01:02:05;;;;;;;28.02;13.65;;;3.80;98.30;;;;;;4804363;29;20054;-81
2021/03/19 01:04:31;;;;;;;31.13;13.45;;;3.70;98.30;;;;;;4805120;29;20063;-82
2021/03/19 01:06:57;;;;;;;33.03;14.05;;;3.70;98.30;;;;;;4805847;29;20050;-82
2021/03/19 01:09:22;;;;;;;31.00;13.57;;;3.60;98.30;;;;;;4789651;29;20027;-82
2021/03/19 01:11:49;;;;;;;31.88;14.10;;;3.60;98.40;;;;;;4790822;29;20134;-80
2021/03/19 01:14:16;;;;;;;35.03;12.98;;;3.50;98.30;;;;;;4789396;29;20095;-81
2021/03/19 01:16:42;;;;;;;28.65;11.98;;;3.50;98.30;;;;;;4805589;29;20048;-81
2021/03/19 01:19:08;;;;;;;30.08;12.73;;;3.40;98.20;;;;;;4789016;29;20354;-82
2021/03/19 01:21:34;;;;;;;27.08;11.45;;;3.40;98.20;;;;;;4805392;29;20362;-80
2021/03/19 01:24:00;;;;;;;25.30;12.18;;;3.40;98.20;;;;;;4805730;29;20034;-81
2021/03/19 01:26:25;;;;;;;29.02;12.50;;;3.30;98.10;;;;;;4788846;29;20078;-82
2021/03/19 01:28:52;;;;;;;22.00;10.38;;;3.40;98.30;;;;;;4803884;29;20035;-83
2021/03/19 01:31:17;;;;;;;27.70;11.15;;;3.40;98.00;;;;;;4789168;29;20417;-82
2021/03/19 01:33:43;;;;;;;24.83;11.23;;;3.40;98.10;;;;;;4804935;29;20055;-81
2021/03/19 01:36:09;;;;;;;27.05;11.75;;;3.40;98.00;;;;;;4806564;29;20040;-80
2021/03/19 01:38:36;;;;;;;27.13;11.55;;;3.30;98.00;;;;;;4804959;29;20466;-80
2021/03/19 01:41:04;;;;;;;26.23;10.40;;;3.50;98.00;;;;;;4788551;29;20047;-80
2021/03/19 01:43:55;;;;;;;21.20;9.82;;;3.40;97.80;;;;;;4804907;29;20427;-81
2021/03/19 01:46:59;;;;;;;25.15;10.65;;;3.40;97.80;;;;;;4804626;29;20121;-81
2021/03/19 01:50:02;;;;;;;25.95;10.55;;;3.40;97.80;;;;;;4803556;29;20047;-79
2021/03/19 01:53:06;;;;;;;26.90;10.35;;;3.50;97.70;;;;;;4788600;29;20096;-79
2021/03/19 01:56:09;;;;;;;21.60;9.90;;;3.40;97.60;;;;;;4804317;29;20042;-80
2021/03/19 01:59:12;;;;;;;22.00;9.73;;;3.40;97.50;;;;;;4804377;29;20543;-82
2021/03/19 02:02:16;;;;;;;23.67;10.45;;;3.50;97.50;;;;;;4804899;29;20054;-81
2021/03/19 02:05:19;;;;;;;24.60;9.73;;;3.50;97.50;;;;;;4785244;29;20059;-81
2021/03/19 02:08:23;;;;;;;23.38;9.48;;;3.40;97.50;;;;;;4785379;29;20044;-81
2021/03/19 02:11:27;;;;;;;19.88;8.55;;;3.50;97.50;;;;;;4785986;29;20151;-81
2021/03/19 02:14:30;;;;;;;24.60;9.23;;;3.40;97.50;;;;;;4786137;29;20126;-82
2021/03/19 02:17:33;;;;;;;22.90;9.65;;;3.40;97.50;;;;;;4786084;29;20568;-81
2021/03/19 02:20:37;;;;;;;22.15;8.63;;;3.40;97.40;;;;;;4784922;30;20070;-82
2021/03/19 02:23:40;;;;;;;22.13;8.65;;;3.40;97.40;;;;;;4786218;29;20039;-83
2021/03/19 02:26:43;;;;;;;18.30;8.45;;;3.40;97.40;;;;;;4784834;29;20525;-83
2021/03/19 02:29:48;;;;;;;17.88;8.13;;;3.40;97.30;;;;;;4784678;29;20112;-81
2021/03/19 02:32:24;;;;;;;22.73;9.35;;;3.40;97.20;;;;;;4785665;29;20139;-82
2021/03/19 02:35:01;;;;;;;17.90;8.05;;;3.40;97.30;;;;;;4784763;29;20371;-82
2021/03/19 02:37:30;;;;;;;25.20;9.20;;;3.30;97.20;;;;;;4803747;29;20038;-82
2021/03/19 02:39:56;;;;;;;14.93;7.53;;;3.20;97.30;;;;;;4803933;29;20141;-81
2021/03/19 02:42:28;;;;;;;19.90;7.93;;;3.30;97.40;;;;;;4803680;29;20110;-81
2021/03/19 02:44:54;;;;;;;21.88;8.55;;;3.20;97.40;;;;;;4808266;29;20066;-80
2021/03/19 02:47:20;;;;;;;22.45;9.23;;;3.20;97.50;;;;;;4804063;29;20055;-82
2021/03/19 02:49:47;;;;;;;21.25;8.68;;;3.20;97.50;;;;;;4803875;29;20039;-82
2021/03/19 02:52:14;;;;;;;24.92;8.43;;;3.20;97.40;;;;;;4803760;29;20035;-82
2021/03/19 02:54:40;;;;;;;19.27;7.35;;;3.20;97.30;;;;;;4802410;29;20031;-81
2021/03/19 02:57:06;;;;;;;20.50;8.05;;;3.20;97.50;;;;;;4805270;29;20039;-83
2021/03/19 02:59:32;;;;;;;21.55;8.93;;;3.20;97.40;;;;;;4803737;29;20148;-81
2021/03/19 03:01:57;;;;;;;18.52;8.00;;;3.20;97.40;;;;;;4803729;29;20083;-82
2021/03/19 03:04:23;;;;;;;20.75;8.48;;;3.30;97.60;;;;;;4805747;29;20573;-82
2021/03/19 03:06:55;;;;;;;19.25;8.38;;;3.40;97.40;;;;;;4805290;29;20379;-81
2021/03/19 03:09:27;;;;;;;24.00;8.63;;;3.40;97.20;;;;;;4821846;29;20161;-84
2021/03/19 03:11:54;;;;;;;27.77;7.78;;;3.40;97.30;;;;;;4806948;29;20103;-84
2021/03/19 03:14:23;;;;;;;17.25;7.82;;;3.30;97.30;;;;;;4805764;29;20498;-83
2021/03/19 03:16:50;;;;;;;17.00;7.78;;;3.30;97.20;;;;;;4805463;29;20538;-84
2021/03/19 03:19:20;;;;;;;13.95;7.03;;;3.40;97.30;;;;;;4804975;29;20053;-82
2021/03/19 03:21:46;;;;;;;20.83;8.30;;;3.40;97.20;;;;;;4804847;29;20053;-80
2021/03/19 03:24:13;;;;;;;17.10;7.60;;;3.40;97.20;;;;;;4806424;29;20430;-81
2021/03/19 03:26:41;;;;;;;20.45;7.93;;;3.40;97.20;;;;;;4805240;29;20129;-83
2021/03/19 03:29:08;;;;;;;20.50;7.38;;;3.30;97.10;;;;;;4821453;29;20043;-83
2021/03/19 03:31:34;;;;;;;18.43;7.80;;;3.30;97.10;;;;;;4804693;29;20411;-83
2021/03/19 03:34:00;;;;;;;17.42;7.63;;;3.30;97.10;;;;;;4821488;29;20030;-81
2021/03/19 03:36:26;;;;;;;17.40;7.38;;;3.20;97.20;;;;;;4821110;29;20491;-82
2021/03/19 03:38:52;;;;;;;20.23;7.82;;;3.20;97.20;;;;;;4806242;29;20031;-82
2021/03/19 03:41:22;;;;;;;14.95;7.35;;;3.30;97.20;;;;;;4804728;29;20038;-80
2021/03/19 03:43:49;;;;;;;20.75;7.68;;;3.30;97.10;;;;;;4820739;29;20045;-80
2021/03/19 03:46:19;;;;;;;22.23;8.13;;;3.30;97.10;;;;;;4820781;29;20035;-80
2021/03/19 03:48:45;;;;;;;26.58;7.70;;;3.20;97.20;;;;;;4820461;29;20038;-81
2021/03/19 03:51:12;;;;;;;20.23;7.03;;;3.10;97.30;;;;;;4806295;29;20033;-81
2021/03/19 03:53:40;;;;;;;14.07;7.25;;;3.10;97.30;;;;;;4821238;29;20053;-82
2021/03/19 03:56:07;;;;;;;14.35;6.35;;;3.00;97.40;;;;;;4820971;29;20050;-80
2021/03/19 03:58:33;;;;;;;15.05;6.10;;;3.00;97.50;;;;;;4820713;29;20045;-80
2021/03/19 04:00:59;;;;;;;12.38;5.55;;;2.90;97.50;;;;;;4805284;29;20031;-81
2021/03/19 04:03:25;;;;;;;11.98;6.07;;;2.80;97.50;;;;;;4821067;29;20400;-80
2021/03/19 04:05:51;;;;;;;13.70;5.70;;;2.80;97.60;;;;;;4822592;29;20050;-81
2021/03/19 04:08:19;;;;;;;12.65;6.38;;;2.70;97.70;;;;;;4821393;29;20053;-83
2021/03/19 04:10:46;;;;;;;17.88;5.60;;;2.80;97.70;;;;;;4822054;29;20041;-83
2021/03/19 04:13:12;;;;;;;13.27;5.47;;;2.70;97.70;;;;;;4826638;29;20102;-83
2021/03/19 04:15:39;;;;;;;12.32;6.18;;;2.70;97.70;;;;;;4826828;29;20121;-81
2021/03/19 04:18:09;;;;;;;12.50;5.35;;;2.60;97.70;;;;;;4828283;29;20035;-82
2021/03/19 04:20:36;;;;;;;10.75;5.15;;;2.50;97.70;;;;;;4826534;29;20038;-82
2021/03/19 04:23:03;;;;;;;11.45;5.05;;;2.70;97.90;;;;;;4826420;29;20058;-84
2021/03/19 04:25:28;;;;;;;13.70;5.75;;;2.50;97.70;;;;;;4826810;29;20035;-81
2021/03/19 04:27:57;;;;;;;12.07;5.60;;;2.50;97.70;;;;;;4826909;29;20433;-82
2021/03/19 04:30:31;;;;;;;15.65;5.30;;;2.50;97.70;;;;;;4810155;29;20125;-82
2021/03/19 04:32:58;;;;;;;11.18;5.70;;;2.50;97.70;;;;;;4827781;29;20041;-83
2021/03/19 04:35:26;;;;;;;10.05;4.97;;;2.50;97.70;;;;;;4826633;29;20035;-82
2021/03/19 04:37:59;;;;;;;12.93;5.35;;;2.50;97.70;;;;;;4810538;29;20080;-82
2021/03/19 04:40:26;;;;;;;13.52;5.18;;;2.50;97.70;;;;;;4826710;29;20030;-83
2021/03/19 04:42:53;;;;;;;13.13;4.40;;;2.50;97.70;;;;;;4826477;29;20042;-83
2021/03/19 04:45:21;;;;;;;13.63;5.13;;;2.50;97.70;;;;;;4826681;29;20141;-82
2021/03/19 04:47:47;;;;;;;7.90;3.90;;;2.50;97.70;;;;;;4828530;29;20311;-80
2021/03/19 04:50:13;;;;;;;12.77;4.45;;;2.60;97.60;;;;;;4826120;29;20062;-80
2021/03/19 04:52:39;;;;;;;15.38;5.10;;;2.60;97.60;;;;;;4809852;29;20034;-81
2021/03/19 04:55:07;;;;;;;8.05;4.68;;;2.60;97.60;;;;;;4826273;29;20039;-81
2021/03/19 04:57:32;;;;;;;9.57;4.55;;;2.60;97.60;;;;;;4809864;29;20054;-81
2021/03/19 04:59:58;;;;;;;16.50;4.78;;;2.70;97.50;;;;;;4812029;29;20454;-81
2021/03/19 05:02:45;;;;;;;10.38;4.70;;;2.50;97.50;;;;;;4826265;29;20047;-80
2021/03/19 05:05:19;;;;;;;8.13;3.73;;;2.50;97.60;;;;;;4826121;29;20058;-82
2021/03/19 05:07:50;;;;;;;10.35;4.15;;;2.50;97.50;;;;;;4826184;29;20270;-82
2021/03/19 05:10:19;;;;;;;10.65;4.63;;;2.50;97.60;;;;;;4826005;29;20577;-81
2021/03/19 05:12:44;;;;;;;9.43;4.43;;;2.40;97.60;;;;;;4826417;29;20254;-82
2021/03/19 05:15:11;;;;;;;12.98;5.25;;;2.50;97.50;;;;;;4811973;29;20110;-81
2021/03/19 05:17:36;;;;;;;13.50;4.07;;;2.50;97.60;;;;;;4810324;29;20066;-82
2021/03/19 05:20:09;;;;;;;10.75;4.40;;;2.50;97.60;;;;;;4810169;29;20066;-82
2021/03/19 05:22:34;;;;;;;16.02;4.50;;;2.40;97.50;;;;;;4825328;29;20043;-82
2021/03/19 05:25:00;;;;;;;13.65;4.80;;;2.40;97.60;;;;;;4822963;29;20042;-81
2021/03/19 05:27:26;;;;;;;13.65;5.47;;;2.40;97.60;;;;;;4807299;29;20453;-81
2021/03/19 05:29:57;;;;;;;13.43;4.90;;;2.30;97.60;;;;;;4808381;29;20034;-81
2021/03/19 05:32:24;;;;;;;15.15;4.57;;;2.40;97.70;;;;;;4822728;29;20038;-81
2021/03/19 05:34:50;;;;;;;9.20;4.70;;;2.40;97.70;;;;;;4822480;29;20054;-82
2021/03/19 05:37:16;;;;;;;17.27;5.35;;;2.30;97.80;;;;;;4806728;29;20111;-80
2021/03/19 05:39:42;;;;;;;10.18;4.75;;;2.30;97.80;;;;;;4822418;29;20039;-81
2021/03/19 05:42:35;;;;;;;12.85;4.45;;;2.20;97.80;;;;;;4808005;29;20095;-81
2021/03/19 05:45:19;;;;;;;9.85;4.65;;;2.20;98.00;;;;;;4804199;29;20049;-82
2021/03/19 05:47:45;;;;;;;8.75;4.63;;;2.20;98.00;;;;;;4807029;29;20035;-81
2021/03/19 05:50:26;;;;;;;8.63;4.88;;;2.10;98.00;;;;;;4823218;29;20125;-81
2021/03/19 05:52:53;;;;;;;10.43;4.50;;;2.10;98.00;;;;;;4824095;29;20039;-81
2021/03/19 05:55:22;;;;;;;11.23;4.47;;;2.10;98.00;;;;;;4806846;29;20042;-81
2021/03/19 05:57:48;;;;;;;8.52;4.22;;;2.10;98.00;;;;;;4806464;29;20457;-80
2021/03/19 06:00:19;;;;;;;11.70;5.10;;;2.20;98.00;;;;;;4822662;29;20035;-79
2021/03/19 06:02:45;;;;;;;8.90;3.63;;;2.20;97.90;;;;;;4807758;29;20746;-80
2021/03/19 06:05:16;;;;;;;7.82;4.10;;;2.20;97.90;;;;;;4822112;29;20062;-82
2021/03/19 06:07:43;;;;;;;10.85;4.70;;;2.20;97.90;;;;;;4822362;29;20031;-82
2021/03/19 06:10:35;;;;;;;14.98;4.70;;;2.40;97.90;;;;;;4822407;29;20046;-79
2021/03/19 06:13:46;;;;;;;12.18;4.38;;;2.50;97.90;;;;;;4821890;29;20065;-78
2021/03/19 06:16:39;;;;;;;11.73;4.50;;;2.40;97.80;;;;;;4730343;30;20122;-79
2021/03/19 06:19:25;;;;;;;13.10;4.93;;;2.50;97.70;;;;;;4805736;29;20085;-78
2021/03/19 06:22:04;;;;;;;12.23;4.95;;;2.50;97.70;;;;;;4822064;29;20031;-78
2021/03/19 06:24:32;;;;;;;10.80;4.57;;;2.50;97.70;;;;;;4821984;29;20030;-79
2021/03/19 06:27:20;;;;;;;10.23;4.47;;;2.50;97.60;;;;;;4807263;29;20113;-79
2021/03/19 06:29:53;;;;;;;12.35;4.32;;;2.60;97.70;;;;;;4822347;29;20070;-81
2021/03/19 06:32:19;;;;;;;10.27;4.32;;;2.60;97.70;;;;;;4807884;29;20030;-79
2021/03/19 06:35:10;;;;;;;8.80;3.95;;;2.70;97.90;;;;;;4803656;29;20415;-79
2021/03/19 06:37:39;;;;;;;16.55;4.32;;;2.70;97.60;;;;;;4803724;29;20130;-81
2021/03/19 06:40:29;;;;;;;10.70;3.88;;;2.80;97.60;;;;;;4804461;29;20102;-79
2021/03/19 06:43:12;;;;;;;9.43;4.03;;;2.80;97.50;;;;;;4788933;29;20103;-82
2021/03/19 06:45:38;;;;;;;14.18;4.20;;;2.90;97.50;;;;;;4805085;29;20031;-80
2021/03/19 06:48:04;;;;;;;8.60;3.80;;;2.90;97.40;;;;;;4790761;29;20054;-82
2021/03/19 06:50:32;;;;;;;16.83;3.78;;;3.00;97.40;;;;;;4804093;29;20110;-81
2021/03/19 06:53:17;;;;;;;9.63;3.53;;;3.00;97.40;;;;;;4805363;29;20067;-82
2021/03/19 06:55:46;;;;;;;10.68;3.92;;;3.10;97.40;;;;;;4804541;29;20113;-82
2021/03/19 06:58:12;;;;;;;10.25;4.22;;;3.10;97.30;;;;;;4804381;29;20039;-82
2021/03/19 07:00:42;;;;;;;5.97;3.53;;;3.10;97.30;;;;;;4804445;29;20110;-81
2021/03/19 07:03:21;;;;;;;7.78;4.03;;;3.10;97.30;;;;;;4805403;29;20369;-82
2021/03/19 07:06:04;;;;;;;7.60;3.20;;;3.10;97.30;;;;;;4804144;29;20470;-81
2021/03/19 07:08:33;;;;;;;7.93;3.45;;;3.10;97.30;;;;;;4804058;29;20043;-83
2021/03/19 07:11:33;;;;;;;7.65;3.28;;;3.20;97.30;;;;;;4787991;29;20045;-80
2021/03/19 07:14:26;;;;;;;5.15;2.97;;;3.30;97.20;;;;;;4787842;29;20374;-80
2021/03/19 07:17:10;;;;;;;5.97;3.03;;;3.40;97.00;;;;;;4803487;29;20474;-80
2021/03/19 07:19:59;;;;;;;5.85;2.72;;;3.30;96.90;;;;;;4787376;29;20059;-80
2021/03/19 07:22:43;;;;;;;6.85;3.38;;;3.40;96.90;;;;;;4788147;29;20034;-85
2021/03/19 07:25:27;;;;;;;7.10;3.28;;;3.50;97.10;;;;;;4805291;29;20416;-84
2021/03/19 07:28:31;;;;;;;8.18;2.88;;;3.60;96.90;;;;;;4789466;29;20042;-83
2021/03/19 07:31:13;;;;;;;10.45;3.45;;;3.70;96.80;;;;;;4805106;29;20084;-88
2021/03/19 07:34:03;;;;;;;6.18;3.13;;;3.70;96.70;;;;;;4788938;29;20055;-88
2021/03/19 07:37:01;;;;;;;10.05;3.13;;;3.80;96.60;;;;;;4804742;29;20454;-87
2021/03/19 07:39:45;;;;;;;;;;;3.80;96.40;;;;;;4806086;29;20347;-84
2021/03/19 07:42:52;;;;;;;5.93;2.80;;;3.80;96.40;;;;;;4807809;29;19920;-86
2021/03/19 07:45:38;;;;;;;12.55;3.67;;;3.80;96.30;;;;;;4793408;29;20458;-87
2021/03/19 07:48:22;;;;;;;10.30;3.80;;;3.80;96.30;;;;;;4793289;29;20054;-85
2021/03/19 07:51:22;;;;;;;6.60;3.00;;;3.90;96.20;;;;;;4807498;29;20167;-86
2021/03/19 07:54:09;;;;;;;6.75;2.75;;;3.90;96.10;;;;;;4808581;29;20046;-84
2021/03/19 07:56:37;;;;;;;7.80;3.13;;;3.90;96.00;;;;;;4788410;29;20047;-83
2021/03/19 07:59:27;;;;;;;5.53;2.78;;;4.00;96.10;;;;;;4804540;29;20459;-86
2021/03/19 08:02:11;;;;;;;8.00;2.90;;;4.00;96.00;;;;;;4805288;29;20053;-84
2021/03/19 08:04:55;;;;;;;8.98;3.03;;;4.10;95.90;;;;;;4787309;29;20078;-83
2021/03/19 08:07:45;;;;;;;8.00;2.60;;;4.10;95.80;;;;;;4803438;29;20051;-85
2021/03/19 08:10:30;;;;;;;6.53;3.42;;;4.30;95.70;;;;;;4803096;29;20134;-84
2021/03/19 08:13:07;;;;;;;9.63;2.92;;;4.40;95.50;;;;;;4804193;29;20058;-84
2021/03/19 08:15:48;;;;;;;13.55;3.35;;;4.50;95.40;;;;;;4803113;29;20046;-78
2021/03/19 08:18:44;;;;;;;9.27;3.63;;;4.50;95.40;;;;;;4802768;29;20486;-78
2021/03/19 08:21:12;;;;;;;6.55;2.13;;;4.50;95.10;;;;;;4787734;29;20022;-80
2021/03/19 08:24:01;;;;;;;6.68;2.22;;;4.60;94.90;;;;;;4801493;29;20102;-80
2021/03/19 08:26:35;;;;;;;5.40;2.70;;;4.70;94.70;;;;;;4802901;29;20051;-80
2021/03/19 08:29:41;;;;;;;5.70;2.45;;;4.70;94.60;;;;;;4803042;29;20126;-82
2021/03/19 08:32:27;;;;;;;12.30;2.97;;;4.80;94.70;;;;;;4802864;29;20105;-84
2021/03/19 08:35:23;;;;;;;8.73;2.87;;;4.90;94.40;;;;;;4803612;29;20349;-82
2021/03/19 08:38:11;;;;;;;8.20;2.50;;;4.90;94.00;;;;;;4804047;29;20043;-89
2021/03/19 08:40:53;;;;;;;10.50;2.67;;;4.90;93.60;;;;;;4806132;29;20054;-84
2021/03/19 08:43:40;;;;;;;6.25;2.75;;;5.00;93.60;;;;;;4802931;29;20669;-81
2021/03/19 08:46:24;;;;;;;11.27;2.05;;;5.10;93.20;;;;;;4803254;29;20054;-84
2021/03/19 08:48:53;;;;;;;11.63;2.17;;;5.20;92.90;;;;;;4803393;29;20039;-83
2021/03/19 08:51:27;;;;;;;8.65;2.28;;;5.30;92.70;;;;;;4788420;29;20095;-85
2021/03/19 08:54:17;;;;;;;6.68;2.25;;;5.40;92.70;;;;;;4805510;29;20027;-82
2021/03/19 08:56:46;;;;;;;4.97;2.20;;;5.60;92.30;;;;;;4803213;29;20104;-83
2021/03/19 08:59:35;;;;;;;9.10;2.13;;;5.80;92.10;;;;;;4790518;29;20043;-83
2021/03/19 09:02:11;;;;;;;6.25;1.73;;;6.10;91.30;;;;;;4806038;29;20049;-82
2021/03/19 09:04:55;;;;;;;4.95;2.22;;;6.40;91.10;;;;;;4805468;29;20508;-80
2021/03/19 09:08:01;;;;;;;3.42;1.70;;;6.70;90.60;;;;;;4806263;29;20130;-81
2021/03/19 09:10:26;;;;;;;6.00;2.13;;;7.10;90.00;;;;;;4805908;29;20122;-79
2021/03/19 09:12:55;;;;;;;4.50;2.60;;;7.50;89.50;;;;;;4788361;29;20175;-81
2021/03/19 09:15:21;;;;;;;4.15;1.95;;;8.00;88.70;;;;;;4788992;29;20058;-82
2021/03/19 09:17:52;;;;;;;5.53;1.80;;;8.50;86.80;;;;;;4807166;29;20119;-84
2021/03/19 09:21:02;;;;;;;4.90;1.50;;;8.90;86.50;;;;;;4805654;29;20049;-81
2021/03/19 09:23:52;;;;;;;6.30;1.48;;;9.40;84.30;;;;;;4763216;29;20122;-81
2021/03/19 09:26:21;;;;;;;13.95;2.45;;;10.10;81.60;;;;;;4777742;29;20035;-83
2021/03/19 09:28:58;;;;;;;7.10;2.38;;;10.60;80.50;;;;;;4789926;29;20050;-86
2021/03/19 09:31:24;;;;;;;5.95;2.22;;;10.70;78.90;;;;;;4805391;29;20049;-81
2021/03/19 09:33:49;;;;;;;7.30;2.30;;;11.10;78.60;;;;;;4788473;29;20035;-79
2021/03/19 09:36:52;;;;;;;6.95;2.10;;;11.60;76.60;;;;;;4792418;29;20027;-92
2021/03/19 09:39:53;;;;;;;4.32;2.22;;;11.90;75.20;;;;;;4792077;29;20091;-86
2021/03/19 09:42:19;;;;;;;4.05;2.05;;;11.80;73.20;;;;;;4806489;29;20030;-87
2021/03/19 09:44:59;;;;;;;11.57;5.28;;;11.90;73.10;;;;;;4810157;29;20035;-88
2021/03/19 09:47:44;;;;;;;7.80;2.72;;;11.90;72.50;;;;;;4808757;29;20050;-88
2021/03/19 09:50:17;;;;;;;6.45;2.53;;;12.20;71.90;;;;;;4806523;29;20135;-82
2021/03/19 09:53:01;;;;;;;4.95;2.40;;;12.30;71.20;;;;;;4805619;29;20084;-82
2021/03/19 09:55:39;;;;;;;9.27;2.95;;;12.20;71.70;;;;;;4805851;29;20035;-82
2021/03/19 09:58:29;;;;;;;6.55;2.33;;;12.30;71.80;;;;;;4789581;29;20043;-85
2021/03/19 10:01:13;;;;;;;8.30;2.30;;;12.30;72.10;;;;;;4805120;29;20063;-84
2021/03/19 10:03:47;;;;;;;9.50;3.30;;;12.30;71.70;;;;;;4805635;29;20043;-82
2021/03/19 10:06:25;;;;;;;7.25;2.80;;;12.20;72.20;;;;;;4804986;29;20058;-81
2021/03/19 10:09:01;;;;;;;7.38;2.35;;;12.10;72.60;;;;;;4789577;29;20087;-80
2021/03/19 10:11:27;;;;;;;6.97;2.63;;;12.40;72.80;;;;;;4804021;29;20057;-80
2021/03/19 10:14:09;;;;;;;6.90;2.50;;;12.20;72.30;;;;;;4805154;29;20474;-82
2021/03/19 10:16:34;;;;;;;5.30;2.33;;;12.30;72.40;;;;;;4788126;29;20055;-83
2021/03/19 10:19:10;;;;;;;11.93;2.80;;;12.20;72.60;;;;;;4804483;29;20112;-80
2021/03/19 10:21:45;;;;;;;8.70;2.58;;;12.50;72.70;;;;;;4804800;29;20145;-86
2021/03/19 10:24:12;;;;;;;9.20;2.25;;;13.30;70.80;;;;;;4805543;29;20039;-82
2021/03/19 10:27:11;;;;;;;7.80;2.70;;;13.70;68.50;;;;;;4788103;29;20035;-82
2021/03/19 10:29:41;;;;;;;5.43;2.45;;;14.00;67.40;;;;;;4796619;29;20051;-81
2021/03/19 10:32:14;;;;;;;5.80;2.33;;;14.50;67.00;;;;;;4804542;29;20058;-84
2021/03/19 10:34:48;;;;;;;8.60;3.55;;;14.30;65.60;;;;;;4788748;29;20031;-84
2021/03/19 10:37:31;;;;;;;4.75;2.58;;;14.00;64.90;;;;;;4791253;29;20035;-84
2021/03/19 10:40:05;;;;;;;5.35;2.20;;;13.50;64.60;;;;;;4805322;29;20369;-81
2021/03/19 10:42:47;;;;;;;16.63;3.67;;;13.00;65.40;;;;;;4804840;29;20419;-85
2021/03/19 10:45:32;;;;;;;8.80;2.60;;;13.00;66.60;;;;;;4803249;29;20039;-80
2021/03/19 10:48:58;;;;;;;7.25;2.40;;;12.70;66.40;;;;;;4789635;29;20030;-86
2021/03/19 10:51:34;;;;;;;8.55;3.00;;;12.70;66.80;;;;;;4696664;30;20341;-87
2021/03/19 10:54:26;;;;;;;7.85;2.25;;;12.80;66.70;;;;;;4688766;30;20029;-86
2021/03/19 10:56:58;;;;;;;17.42;5.88;;;12.80;66.40;;;;;;4777303;29;20070;-88
2021/03/19 10:59:26;;;;;;;4.22;2.50;;;13.00;66.50;;;;;;4808787;29;20043;-83
2021/03/19 11:01:52;;;;;;;6.97;2.35;;;12.80;65.00;;;;;;4807334;29;20046;-87
2021/03/19 11:04:39;;;;;;;6.53;3.05;;;12.50;65.40;;;;;;4808079;29;20062;-88
2021/03/19 11:07:43;;;;;;;7.80;3.03;;;12.20;65.90;;;;;;4792301;29;20051;-84
2021/03/19 11:10:48;;;;;;;3.78;2.13;;;11.80;66.60;;;;;;4791077;29;20031;-84
2021/03/19 11:13:13;;;;;;;7.47;2.97;;;11.50;67.60;;;;;;4805174;29;20047;-83
2021/03/19 11:15:42;;;;;;;7.00;2.80;;;11.00;68.40;;;;;;4806723;29;20425;-84
2021/03/19 11:18:20;;;;;;;10.68;2.85;;;11.10;70.00;;;;;;4793883;29;20486;-89
2021/03/19 11:20:49;;;;;;;9.80;3.20;;;11.00;69.50;;;;;;4808869;29;20075;-89
2021/03/19 11:23:32;;;;;;;8.93;2.35;;;11.00;68.60;;;;;;4812477;29;20104;-87
2021/03/19 11:25:59;;;;;;;12.43;2.22;;;10.80;68.40;;;;;;4795061;29;20055;-86
2021/03/19 11:28:41;;;;;;;5.88;2.22;;;10.70;68.40;;;;;;4792864;29;20035;-87
2021/03/19 11:31:35;;;;;;;5.35;2.30;;;11.10;68.10;;;;;;4808459;29;20138;-84
2021/03/19 11:34:09;;;;;;;5.15;2.40;;;11.00;66.70;;;;;;4800511;29;20046;-83
2021/03/19 11:36:57;;;;;;;6.63;2.25;;;10.80;67.40;;;;;;4805165;29;20458;-80
2021/03/19 11:39:39;;;;;;;7.97;2.67;;;10.50;68.40;;;;;;4788196;29;20129;-80
2021/03/19 11:42:09;;;;;;;10.68;3.28;;;10.20;69.50;;;;;;4789095;29;20606;-80
2021/03/19 11:44:35;;;;;;;8.30;2.53;;;10.00;70.60;;;;;;4802630;29;20080;-83
2021/03/19 11:47:23;;;;;;;10.40;2.17;;;10.20;71.50;;;;;;4804494;29;20553;-80
2021/03/19 11:49:52;;;;;;;4.38;2.53;;;10.40;70.60;;;;;;4803649;29;20038;-79
2021/03/19 11:52:20;;;;;;;8.40;1.83;;;10.50;70.20;;;;;;4803407;29;20038;-81
2021/03/19 11:54:46;;;;;;;4.72;1.50;;;10.60;70.00;;;;;;4802287;29;20034;-81
2021/03/19 11:57:12;;;;;;;7.10;1.75;;;10.50;65.30;;;;;;4804708;29;20119;-81
2021/03/19 11:59:38;;;;;;;3.53;1.60;;;10.30;64.60;;;;;;4803752;29;20054;-84
2021/03/19 12:02:42;;;;;;;3.00;1.63;;;10.50;64.90;;;;;;4801922;29;20035;-84
2021/03/19 12:05:10;;;;;;;9.32;2.30;;;10.60;65.90;;;;;;4803174;29;20126;-83
2021/03/19 12:07:36;;;;;;;8.02;2.20;;;10.70;66.40;;;;;;4803360;29;20074;-84
2021/03/19 12:10:04;;;;;;;6.93;1.85;;;10.70;66.20;;;;;;4804347;29;20072;-83
2021/03/19 12:12:29;;;;;;;4.53;1.83;;;10.70;65.60;;;;;;4803458;29;20042;-83
2021/03/19 12:14:57;;;;;;;5.82;1.77;;;10.60;64.80;;;;;;4804908;29;20043;-85
2021/03/19 12:17:23;;;;;;;2.13;1.50;;;10.50;64.90;;;;;;4788354;29;20046;-85
2021/03/19 12:19:51;;;;;;;4.95;1.90;;;10.40;64.80;;;;;;4788702;29;20039;-87
2021/03/19 12:22:18;;;;;;;3.60;1.92;;;10.30;65.50;;;;;;4805504;29;20130;-84
2021/03/19 12:24:44;;;;;;;5.68;2.03;;;10.20;65.50;;;;;;4803972;29;20046;-87
2021/03/19 12:27:10;;;;;;;5.85;1.90;;;10.30;66.10;;;;;;4805910;29;20392;-86
2021/03/19 12:29:36;;;;;;;10.45;2.50;;;10.50;66.50;;;;;;4804959;29;20170;-81
2021/03/19 12:32:02;;;;;;;4.95;2.00;;;10.60;65.70;;;;;;4802819;29;20082;-89
2021/03/19 12:34:28;;;;;;;7.25;2.50;;;10.60;65.60;;;;;;4791959;29;20039;-82
2021/03/19 12:36:53;;;;;;;12.27;2.40;;;10.60;65.30;;;;;;4806320;29;20380;-86
2021/03/19 12:39:21;;;;;;;5.15;2.00;;;10.50;64.80;;;;;;4806667;29;20058;-87
2021/03/19 12:41:47;;;;;;;6.55;1.50;;;10.30;64.70;;;;;;4808878;29;20088;-87
2021/03/19 12:44:13;;;;;;;6.25;1.85;;;10.20;65.40;;;;;;4794623;29;20681;-88
2021/03/19 12:46:39;;;;;;;5.68;2.50;;;10.10;64.80;;;;;;4809680;29;20039;-87
2021/03/19 12:49:06;;;;;;;5.22;1.85;;;10.10;65.30;;;;;;4805909;29;20034;-85
2021/03/19 12:51:32;;;;;;;9.90;1.90;;;10.00;64.90;;;;;;4794825;29;20075;-89
2021/03/19 12:53:58;;;;;;;4.90;1.67;;;9.70;66.50;;;;;;4812555;29;20100;-85
2021/03/19 12:56:24;;;;;;;7.32;2.35;;;9.70;67.30;;;;;;4810460;29;20355;-85
2021/03/19 12:58:50;;;;;;;5.75;1.92;;;9.70;67.30;;;;;;4811243;29;20051;-86
2021/03/19 13:01:19;;;;;;;9.25;2.33;;;9.70;67.60;;;;;;4810640;29;20043;-87
2021/03/19 13:03:46;;;;;;;5.40;2.33;;;9.70;68.00;;;;;;4792658;29;20046;-88
2021/03/19 13:06:12;;;;;;;6.57;2.53;;;9.70;68.10;;;;;;4812837;29;20059;-86
2021/03/19 13:08:38;;;;;;;4.80;2.38;;;9.70;68.30;;;;;;4810349;29;20150;-83
2021/03/19 13:11:04;;;;;;;8.70;1.85;;;9.70;68.70;;;;;;4807458;29;20046;-82
2021/03/19 13:13:30;;;;;;;5.90;2.15;;;9.70;68.40;;;;;;4791793;29;20485;-86
2021/03/19 13:15:55;;;;;;;7.53;3.60;;;9.60;68.00;;;;;;4808751;29;20114;-86
2021/03/19 13:18:22;;;;;;;8.00;2.50;;;9.50;68.10;;;;;;4806943;29;20367;-84
2021/03/19 13:20:48;;;;;;;5.90;2.10;;;9.40;68.00;;;;;;4810884;29;20557;-87
2021/03/19 13:23:15;;;;;;;7.63;1.80;;;9.40;67.10;;;;;;4808989;29;20057;-89
2021/03/19 13:25:42;;;;;;;4.65;1.90;;;9.30;65.80;;;;;;4807268;29;20074;-89
2021/03/19 13:28:09;;;;;;;4.13;2.00;;;9.20;65.40;;;;;;4807216;29;20046;-84